createdAt,value
2018-09-15T00:00:23.090Z,19.30
2018-09-15T00:02:56.593Z,16.87
2018-09-15T00:05:32.518Z,16.40
2018-09-15T00:08:06.012Z,17.07
2018-09-15T00:10:42.199Z,18.93
2018-09-15T00:13:16.557Z,18.63
2018-09-15T00:15:50.204Z,16.53
2018-09-15T00:18:21.839Z,17.63
2018-09-15T00:20:53.822Z,17.13
2018-09-15T00:23:25.517Z,18.90
2018-09-15T00:25:57.211Z,15.93
2018-09-15T00:28:29.012Z,17.50
2018-09-15T00:30:56.913Z,15.27
2018-09-15T00:33:28.016Z,18.40
2018-09-15T00:36:03.515Z,15.90
2018-09-15T00:38:35.221Z,17.47
2018-09-15T00:41:09.329Z,17.23
2018-09-15T00:43:41.952Z,16.70
2018-09-15T00:46:23.648Z,16.27
2018-09-15T00:48:53.822Z,16.63
2018-09-15T00:51:24.249Z,19.10
2018-09-15T00:53:55.389Z,16.03
2018-09-15T00:56:27.122Z,15.87
2018-09-15T00:59:02.012Z,16.67
2018-09-15T01:01:34.230Z,18.10
2018-09-15T01:04:05.097Z,18.50
2018-09-15T01:06:37.930Z,17.90
2018-09-15T01:09:09.942Z,19.10
2018-09-15T01:11:48.132Z,20.17
2018-09-15T01:14:27.560Z,20.73
2018-09-15T01:17:01.160Z,21.10
2018-09-15T01:19:40.009Z,20.97
2018-09-15T01:22:17.232Z,20.93
2018-09-15T01:24:48.211Z,19.20
2018-09-15T01:27:20.744Z,20.90
2018-09-15T01:29:53.224Z,18.33
2018-09-15T01:32:26.348Z,20.20
2018-09-15T01:35:06.851Z,19.07
2018-09-15T01:37:41.735Z,20.60
2018-09-15T01:40:14.551Z,20.20
2018-09-15T01:42:48.126Z,20.27
2018-09-15T01:45:21.260Z,19.93
2018-09-15T01:47:55.108Z,21.60
2018-09-15T01:50:27.588Z,19.67
2018-09-15T01:53:03.584Z,22.87
2018-09-15T01:55:37.050Z,20.00
2018-09-15T01:58:08.664Z,19.83
2018-09-15T02:00:40.095Z,20.63
2018-09-15T02:03:15.352Z,18.93
2018-09-15T02:05:47.529Z,23.07
2018-09-15T02:08:20.018Z,21.90
2018-09-15T02:10:51.971Z,21.47
2018-09-15T02:13:24.269Z,21.47
2018-09-15T02:16:04.872Z,19.13
2018-09-15T02:18:36.909Z,17.23
2018-09-15T02:21:07.589Z,18.73
2018-09-15T02:23:45.961Z,19.20
2018-09-15T02:26:18.782Z,19.47
2018-09-15T02:28:48.842Z,21.07
2018-09-15T02:31:23.479Z,21.57
2018-09-15T02:33:57.905Z,18.60
2018-09-15T02:36:29.958Z,20.30
2018-09-15T02:39:04.787Z,21.70
2018-09-15T02:41:39.400Z,20.00
2018-09-15T02:44:13.015Z,20.03
2018-09-15T02:46:45.143Z,19.00
2018-09-15T02:49:20.678Z,20.97
2018-09-15T02:51:54.282Z,25.93
2018-09-15T02:54:25.595Z,24.10
2018-09-15T02:56:55.920Z,21.87
2018-09-15T02:59:34.295Z,22.73
2018-09-15T03:02:07.005Z,23.30
2018-09-15T03:04:36.404Z,21.27
2018-09-15T03:07:08.832Z,22.87
2018-09-15T03:09:47.761Z,23.47
2018-09-15T03:12:18.009Z,20.50
2018-09-15T03:14:50.379Z,20.60
2018-09-15T03:17:23.277Z,22.83
2018-09-15T03:19:58.911Z,20.80
2018-09-15T03:22:43.418Z,20.87
2018-09-15T03:25:17.417Z,23.67
2018-09-15T03:27:48.414Z,23.10
2018-09-15T03:30:22.700Z,21.83
2018-09-15T03:32:56.618Z,21.30
2018-09-15T03:35:30.620Z,20.83
2018-09-15T03:38:02.322Z,21.43
2018-09-15T03:40:42.726Z,19.70
2018-09-15T03:43:16.227Z,20.13
2018-09-15T03:45:46.333Z,25.57
2018-09-15T03:48:20.396Z,22.33
2018-09-15T03:50:59.329Z,21.67
2018-09-15T03:53:31.734Z,20.07
2018-09-15T03:56:08.958Z,24.30
2018-09-15T03:58:39.133Z,21.67
2018-09-15T04:01:10.028Z,21.90
2018-09-15T04:03:40.147Z,22.90
2018-09-15T04:06:13.946Z,22.60
2018-09-15T04:08:45.334Z,23.73
2018-09-15T04:11:15.494Z,23.60
2018-09-15T04:13:45.505Z,23.43
2018-09-15T04:16:14.113Z,25.00
2018-09-15T04:18:42.653Z,27.63
2018-09-15T04:21:17.404Z,28.33
2018-09-15T04:23:47.689Z,26.73
2018-09-15T04:26:16.507Z,26.93
2018-09-15T04:28:45.071Z,30.30
2018-09-15T04:31:16.656Z,28.37
2018-09-15T04:33:45.816Z,30.43
2018-09-15T04:36:16.594Z,27.43
2018-09-15T04:38:46.973Z,29.27
2018-09-15T04:41:17.576Z,30.70
2018-09-15T04:43:48.831Z,28.40
2018-09-15T04:46:18.268Z,26.77
2018-09-15T04:48:46.956Z,27.67
2018-09-15T04:51:15.181Z,27.30
2018-09-15T04:53:46.566Z,24.50
2018-09-15T04:56:15.115Z,25.30
2018-09-15T04:58:46.972Z,24.70
2018-09-15T05:01:16.284Z,28.53
2018-09-15T05:03:44.385Z,27.53
2018-09-15T05:06:13.343Z,22.10
2018-09-15T05:08:42.481Z,23.80
2018-09-15T05:11:12.504Z,21.13
2018-09-15T05:13:42.017Z,22.10
2018-09-15T05:16:11.589Z,19.00
2018-09-15T05:18:39.597Z,20.13
2018-09-15T05:21:07.424Z,19.77
2018-09-15T05:23:36.111Z,19.43
2018-09-15T05:26:04.695Z,17.57
2018-09-15T05:28:33.221Z,16.90
2018-09-15T05:31:01.818Z,18.30
2018-09-15T05:33:30.721Z,16.40
2018-09-15T05:36:01.990Z,15.57
2018-09-15T05:38:30.057Z,16.13
2018-09-15T05:40:59.189Z,13.53
2018-09-15T05:43:28.671Z,12.80
2018-09-15T05:45:57.505Z,11.57
2018-09-15T05:48:25.429Z,12.17
2018-09-15T05:50:53.904Z,11.80
2018-09-15T05:53:22.746Z,12.23
2018-09-15T05:55:51.320Z,12.57
2018-09-15T05:58:20.836Z,11.33
2018-09-15T06:00:51.283Z,13.43
2018-09-15T06:03:19.716Z,13.77
2018-09-15T06:05:49.494Z,13.20
2018-09-15T06:08:17.616Z,15.30
2018-09-15T06:10:45.899Z,12.00
2018-09-15T06:13:15.090Z,11.60
2018-09-15T06:15:45.447Z,11.50
2018-09-15T06:18:16.408Z,13.73
2018-09-15T06:20:45.229Z,13.13
2018-09-15T06:23:14.160Z,12.70
2018-09-15T06:25:42.436Z,13.97
2018-09-15T06:28:12.359Z,12.63
2018-09-15T06:30:44.275Z,12.23
2018-09-15T06:33:12.205Z,12.10
2018-09-15T06:35:42.972Z,12.13
2018-09-15T06:38:12.016Z,12.67
2018-09-15T06:40:41.557Z,12.80
2018-09-15T06:43:10.552Z,12.60
2018-09-15T06:45:38.530Z,11.67
2018-09-15T06:48:08.812Z,12.70
2018-09-15T06:50:39.842Z,12.93
2018-09-15T06:53:09.747Z,13.50
2018-09-15T06:55:40.743Z,12.40
2018-09-15T06:58:10.395Z,12.60
2018-09-15T07:00:41.786Z,11.93
2018-09-15T07:03:10.792Z,11.47
2018-09-15T07:05:42.330Z,11.53
2018-09-15T07:08:13.356Z,11.80
2018-09-15T07:10:43.841Z,11.97
2018-09-15T07:13:12.657Z,11.83
2018-09-15T07:15:41.629Z,11.47
2018-09-15T07:18:10.707Z,11.27
2018-09-15T07:20:40.919Z,10.90
2018-09-15T07:23:10.679Z,11.50
2018-09-15T07:25:38.753Z,11.53
2018-09-15T07:28:06.884Z,12.53
2018-09-15T07:30:34.757Z,10.73
2018-09-15T07:33:02.736Z,12.97
2018-09-15T07:35:31.548Z,13.23
2018-09-15T07:37:59.757Z,12.93
2018-09-15T07:40:28.993Z,12.87
2018-09-15T07:42:57.887Z,12.47
2018-09-15T07:45:25.717Z,12.50
2018-09-15T07:47:53.554Z,10.73
2018-09-15T07:50:22.088Z,11.40
2018-09-15T07:52:50.901Z,10.50
2018-09-15T07:55:19.398Z,10.37
2018-09-15T07:57:47.370Z,10.97
2018-09-15T08:00:15.627Z,11.33
2018-09-15T08:02:43.474Z,10.60
2018-09-15T08:05:11.322Z,9.77
2018-09-15T08:07:39.905Z,9.93
2018-09-15T08:10:07.812Z,10.37
2018-09-15T08:12:35.709Z,9.40
2018-09-15T08:15:03.702Z,10.83
2018-09-15T08:17:31.631Z,9.10
2018-09-15T08:19:59.507Z,10.27
2018-09-15T08:22:29.527Z,9.30
2018-09-15T08:24:57.419Z,9.73
2018-09-15T08:27:25.359Z,9.60
2018-09-15T08:29:53.202Z,10.50
2018-09-15T08:32:21.064Z,10.50
2018-09-15T08:34:48.914Z,10.67
2018-09-15T08:37:18.219Z,10.43
2018-09-15T08:39:46.069Z,9.60
2018-09-15T08:42:14.803Z,9.50
2018-09-15T08:44:42.928Z,10.00
2018-09-15T08:47:10.783Z,9.80
2018-09-15T08:49:38.638Z,10.10
2018-09-15T08:52:07.457Z,9.60
2018-09-15T08:54:35.456Z,9.20
2018-09-15T08:57:03.665Z,10.30
2018-09-15T08:59:31.512Z,10.30
2018-09-15T09:01:59.540Z,10.90
2018-09-15T09:04:27.417Z,10.50
2018-09-15T09:06:55.278Z,10.60
2018-09-15T09:09:23.143Z,12.23
2018-09-15T09:11:51.006Z,10.83
2018-09-15T09:14:18.892Z,11.13
2018-09-15T09:16:46.789Z,11.23
2018-09-15T09:19:14.721Z,10.67
2018-09-15T09:21:43.284Z,12.80
2018-09-15T09:24:11.207Z,12.13
2018-09-15T09:26:39.900Z,13.07
2018-09-15T09:29:07.752Z,14.67
2018-09-15T09:31:36.089Z,13.80
2018-09-15T09:34:03.981Z,14.03
2018-09-15T09:36:31.880Z,14.77
2018-09-15T09:38:59.788Z,16.60
2018-09-15T09:41:27.743Z,14.90
2018-09-15T09:43:55.549Z,15.47
2018-09-15T09:46:23.392Z,17.90
2018-09-15T09:48:51.334Z,15.37
2018-09-15T09:53:42.788Z,16.70
2018-09-15T09:56:10.658Z,15.50
2018-09-15T09:58:38.558Z,16.60
2018-09-15T10:01:12.188Z,16.00
2018-09-15T10:03:40.072Z,14.50
2018-09-15T10:06:07.959Z,16.07
2018-09-15T10:08:35.932Z,15.17
2018-09-15T10:11:03.803Z,15.70
2018-09-15T10:13:31.688Z,12.20
2018-09-15T10:15:59.575Z,11.67
2018-09-15T10:18:28.156Z,12.60
2018-09-15T10:20:56.088Z,10.97
2018-09-15T10:23:23.978Z,10.67
2018-09-15T10:25:51.810Z,11.40
2018-09-15T10:28:20.005Z,12.40
2018-09-15T10:30:47.889Z,11.60
2018-09-15T10:33:16.039Z,11.47
2018-09-15T10:35:43.897Z,12.00
2018-09-15T10:38:11.829Z,13.50
2018-09-15T10:40:39.697Z,14.37
2018-09-15T10:43:07.702Z,12.30
2018-09-15T10:45:35.583Z,11.93
2018-09-15T10:48:03.491Z,13.60
2018-09-15T10:50:31.995Z,14.10
2018-09-15T10:52:59.972Z,13.73
2018-09-15T10:55:27.901Z,11.93
2018-09-15T10:57:56.522Z,12.27
2018-09-15T11:00:24.401Z,17.10
2018-09-15T11:02:52.238Z,14.07
2018-09-15T11:05:20.097Z,12.87
2018-09-15T11:07:47.950Z,13.40
2018-09-15T11:10:15.842Z,12.93
2018-09-15T11:12:43.758Z,12.00
2018-09-15T11:15:11.682Z,13.07
2018-09-15T11:17:39.676Z,12.30
2018-09-15T11:20:08.270Z,13.10
2018-09-15T11:22:36.725Z,13.53
2018-09-15T11:25:04.668Z,15.17
2018-09-15T11:27:32.525Z,13.33
2018-09-15T11:30:01.128Z,13.30
2018-09-15T11:32:30.004Z,17.80
2018-09-15T11:34:58.323Z,14.93
2018-09-15T11:37:26.228Z,14.30
2018-09-15T11:39:54.776Z,15.33
2018-09-15T11:42:24.235Z,15.37
2018-09-15T11:44:52.989Z,14.90
2018-09-15T11:47:21.987Z,13.80
2018-09-15T11:49:50.989Z,14.13
2018-09-15T11:52:18.839Z,14.80
2018-09-15T11:54:46.757Z,14.13
2018-09-15T11:57:15.700Z,15.70
2018-09-15T11:59:44.389Z,15.70
2018-09-15T12:02:12.556Z,14.23
2018-09-15T12:04:40.423Z,14.90
2018-09-15T12:07:09.174Z,17.33
2018-09-15T12:09:37.381Z,16.03
2018-09-15T12:12:05.281Z,16.30
2018-09-15T12:14:33.146Z,15.47
2018-09-15T12:17:01.043Z,16.03
2018-09-15T12:19:29.171Z,15.90
2018-09-15T12:21:57.034Z,17.17
2018-09-15T12:24:25.230Z,20.83
2018-09-15T12:26:53.063Z,19.47
2018-09-15T12:29:20.963Z,17.30
2018-09-15T12:31:48.833Z,17.83
2018-09-15T12:34:17.483Z,16.93
2018-09-15T12:36:46.284Z,16.07
2018-09-15T12:39:14.980Z,16.37
2018-09-15T12:41:43.802Z,15.97
2018-09-15T12:44:11.690Z,16.20
2018-09-15T12:46:39.704Z,15.20
2018-09-15T12:49:07.576Z,15.60
2018-09-15T12:51:35.539Z,15.37
2018-09-15T12:54:03.415Z,14.37
2018-09-15T12:56:32.038Z,15.57
2018-09-15T12:58:59.888Z,13.23
2018-09-15T13:01:27.769Z,12.00
2018-09-15T13:03:55.600Z,12.60
2018-09-15T13:06:24.396Z,10.47
2018-09-15T13:08:52.282Z,10.13
2018-09-15T13:11:21.442Z,9.83
2018-09-15T13:13:49.281Z,10.40
2018-09-15T13:16:17.703Z,9.90
2018-09-15T13:18:45.589Z,8.90
2018-09-15T13:21:13.748Z,8.37
2018-09-15T13:23:42.415Z,9.50
2018-09-15T13:26:10.246Z,9.47
2018-09-15T13:28:39.289Z,8.30
2018-09-15T13:31:07.159Z,8.60
2018-09-15T13:33:35.029Z,9.97
2018-09-15T13:36:02.911Z,9.57
2018-09-15T13:38:30.890Z,9.03
2018-09-15T13:40:58.752Z,8.63
2018-09-15T13:43:26.615Z,9.07
2018-09-15T13:45:55.223Z,9.63
2018-09-15T13:48:23.120Z,8.87
2018-09-15T13:50:52.109Z,8.90
2018-09-15T13:53:20.029Z,8.20
2018-09-15T13:55:47.917Z,9.63
2018-09-15T13:58:15.853Z,9.43
2018-09-15T14:00:43.829Z,9.50
2018-09-15T14:03:11.721Z,8.43
2018-09-15T14:05:39.623Z,8.47
2018-09-15T14:08:08.335Z,7.90
2018-09-15T14:10:36.559Z,10.20
2018-09-15T14:13:04.803Z,9.03
2018-09-15T14:15:32.643Z,8.63
2018-09-15T14:18:00.481Z,9.07
2018-09-15T14:20:28.344Z,8.80
2018-09-15T14:22:56.209Z,8.97
2018-09-15T14:25:24.082Z,9.17
2018-09-15T14:27:52.045Z,8.83
2018-09-15T14:30:19.961Z,10.17
2018-09-15T14:32:47.842Z,7.97
2018-09-15T14:35:15.692Z,9.77
2018-09-15T14:37:43.563Z,8.57
2018-09-15T14:40:11.922Z,7.63
2018-09-15T14:42:39.951Z,8.10
2018-09-15T14:45:07.829Z,8.70
2018-09-15T14:47:35.646Z,8.20
2018-09-15T14:50:03.613Z,8.63
2018-09-15T14:52:31.990Z,7.70
2018-09-15T14:55:00.405Z,9.30
2018-09-15T14:57:28.248Z,8.43
2018-09-15T14:59:56.187Z,9.80
2018-09-15T15:02:24.105Z,9.03
2018-09-15T15:04:52.005Z,8.90
2018-09-15T15:07:19.918Z,8.20
2018-09-15T15:09:47.748Z,8.50
2018-09-15T15:12:15.611Z,9.63
2018-09-15T15:14:43.440Z,8.70
2018-09-15T15:17:12.244Z,8.70
2018-09-15T15:19:40.181Z,12.27
2018-09-15T15:22:08.628Z,9.20
2018-09-15T15:24:36.592Z,8.87
2018-09-15T15:27:05.568Z,9.47
2018-09-15T15:29:34.190Z,10.23
2018-09-15T15:32:02.062Z,8.27
2018-09-15T15:34:30.015Z,10.90
2018-09-15T15:36:57.870Z,10.70
2018-09-15T15:39:25.734Z,10.33
2018-09-15T15:41:53.696Z,9.60
2018-09-15T15:44:21.447Z,9.70
2018-09-15T15:46:49.560Z,9.10
2018-09-15T15:49:17.445Z,9.20
2018-09-15T15:51:45.340Z,7.63
2018-09-15T15:54:13.246Z,9.10
2018-09-15T15:56:41.390Z,8.83
2018-09-15T15:59:09.305Z,8.00
2018-09-15T16:01:37.752Z,8.93
2018-09-15T16:04:05.695Z,7.90
2018-09-15T16:06:34.022Z,9.20
2018-09-15T16:09:01.913Z,8.90
2018-09-15T16:11:30.177Z,8.73
2018-09-15T16:13:58.044Z,8.63
2018-09-15T16:16:25.900Z,8.60
2018-09-15T16:18:53.767Z,9.40
2018-09-15T16:21:21.616Z,9.10
2018-09-15T16:23:50.326Z,8.80
2018-09-15T16:26:19.019Z,10.13
2018-09-15T16:28:46.882Z,9.87
2018-09-15T16:31:14.766Z,8.30
2018-09-15T16:33:42.600Z,9.53
2018-09-15T16:36:10.458Z,8.63
2018-09-15T16:38:38.384Z,11.17
2018-09-15T16:41:06.513Z,11.63
2018-09-15T16:43:34.413Z,10.50
2018-09-15T16:46:02.663Z,11.40
2018-09-15T16:48:30.565Z,20.50
2018-09-15T16:50:58.378Z,28.37
2018-09-15T16:53:27.045Z,19.50
2018-09-15T16:55:54.883Z,20.00
2018-09-15T16:58:23.004Z,12.63
2018-09-15T17:00:51.064Z,10.63
2018-09-15T17:03:19.092Z,10.03
2018-09-15T17:05:46.925Z,9.97
2018-09-15T17:08:14.859Z,8.80
2018-09-15T17:10:42.957Z,9.53
2018-09-15T17:13:10.791Z,10.13
2018-09-15T17:15:38.664Z,12.10
2018-09-15T17:18:06.540Z,12.40
2018-09-15T17:20:35.263Z,12.40
2018-09-15T17:23:03.306Z,11.30
2018-09-15T17:25:31.188Z,11.00
2018-09-15T17:27:59.100Z,12.13
2018-09-15T17:30:27.028Z,10.63
2018-09-15T17:32:54.897Z,12.27
2018-09-15T17:35:22.741Z,10.03
2018-09-15T17:37:50.967Z,10.17
2018-09-15T17:40:19.813Z,10.30
2018-09-15T17:42:48.758Z,12.10
2018-09-15T17:45:17.463Z,12.77
2018-09-15T17:47:45.280Z,11.97
2018-09-15T17:50:13.195Z,12.00
2018-09-15T17:52:41.707Z,11.00
2018-09-15T17:55:09.925Z,13.73
2018-09-15T17:57:37.836Z,14.30
2018-09-15T18:00:06.458Z,16.90
2018-09-15T18:02:35.695Z,14.50
2018-09-15T18:05:03.725Z,12.93
2018-09-15T18:07:31.603Z,13.00
2018-09-15T18:10:00.397Z,13.50
2018-09-15T18:12:28.544Z,13.83
2018-09-15T18:14:57.222Z,14.70
2018-09-15T18:17:25.402Z,16.53
2018-09-15T18:19:53.341Z,14.37
2018-09-15T18:22:21.727Z,13.70
2018-09-15T18:24:49.576Z,13.17
2018-09-15T18:27:17.454Z,12.40
2018-09-15T18:29:45.311Z,12.37
2018-09-15T18:32:13.737Z,11.80
2018-09-15T18:34:42.728Z,12.33
2018-09-15T18:37:11.746Z,13.60
2018-09-15T18:39:39.936Z,14.27
2018-09-15T18:42:07.784Z,15.73
2018-09-15T18:44:35.670Z,16.10
2018-09-15T18:47:03.620Z,18.63
2018-09-15T18:49:32.150Z,15.63
2018-09-15T18:52:00.372Z,17.03
2018-09-15T18:54:28.327Z,13.77
2018-09-15T18:56:56.385Z,12.00
2018-09-15T18:59:25.203Z,13.97
2018-09-15T19:01:53.903Z,12.10
2018-09-15T19:04:22.359Z,12.13
2018-09-15T19:06:52.910Z,11.50
2018-09-15T19:09:21.014Z,11.33
2018-09-15T19:11:49.541Z,11.07
2018-09-15T19:14:17.529Z,11.57
2018-09-15T19:16:45.941Z,12.50
2018-09-15T19:19:14.576Z,12.67
2018-09-15T19:21:43.323Z,13.43
2018-09-15T19:24:11.301Z,12.30
2018-09-15T19:26:40.742Z,13.07
2018-09-15T19:29:08.690Z,13.20
2018-09-15T19:31:36.589Z,13.57
2018-09-15T19:34:04.526Z,12.10
2018-09-15T19:36:32.462Z,11.50
2018-09-15T19:39:00.371Z,12.30
2018-09-15T19:41:28.266Z,12.23
2018-09-15T19:43:56.775Z,12.67
2018-09-15T19:46:24.616Z,11.73
2018-09-15T19:48:52.480Z,12.17
2018-09-15T19:51:20.309Z,10.30
2018-09-15T19:53:48.180Z,11.33
2018-09-15T19:56:16.069Z,12.07
2018-09-15T19:58:43.922Z,10.40
2018-09-15T20:01:12.472Z,11.30
2018-09-15T20:03:40.337Z,12.17
2018-09-15T20:06:08.262Z,11.47
2018-09-15T20:08:36.083Z,10.50
2018-09-15T20:11:03.973Z,10.17
2018-09-15T20:13:31.876Z,10.60
2018-09-15T20:15:58.642Z,10.50
2018-09-15T20:18:25.361Z,9.87
2018-09-15T20:20:52.089Z,11.50
2018-09-15T20:23:19.937Z,10.07
2018-09-15T20:25:47.878Z,9.70
2018-09-15T20:28:16.163Z,10.40
2018-09-15T20:30:44.044Z,10.67
2018-09-15T20:33:12.311Z,9.97
2018-09-15T20:35:40.190Z,10.80
2018-09-15T20:38:09.010Z,10.80
2018-09-15T20:40:36.916Z,10.37
2018-09-15T20:43:05.138Z,10.23
2018-09-15T20:45:32.996Z,10.30
2018-09-15T20:48:00.849Z,10.53
2018-09-15T20:50:28.686Z,10.80
2018-09-15T20:52:56.508Z,9.97
2018-09-15T20:55:24.358Z,8.63
2018-09-15T20:57:52.177Z,10.57
2018-09-15T21:00:20.052Z,9.27
2018-09-15T21:02:47.960Z,13.73
2018-09-15T21:05:15.832Z,10.60
2018-09-15T21:07:43.711Z,29.50
2018-09-15T21:10:11.561Z,13.00
2018-09-15T21:12:39.389Z,19.23
2018-09-15T21:15:07.371Z,17.90
2018-09-15T21:17:35.193Z,22.83
2018-09-15T21:20:03.148Z,13.23
2018-09-15T21:22:31.007Z,10.47
2018-09-15T21:24:58.862Z,12.03
2018-09-15T21:27:26.692Z,12.47
2018-09-15T21:29:54.534Z,11.80
2018-09-15T21:32:22.398Z,22.20
2018-09-15T21:34:50.527Z,15.40
2018-09-15T21:37:18.427Z,16.83
2018-09-15T21:39:46.241Z,14.57
2018-09-15T21:42:14.085Z,10.23
2018-09-15T21:44:41.962Z,11.80
2018-09-15T21:47:09.847Z,10.50
2018-09-15T21:49:37.708Z,9.90
2018-09-15T21:52:05.936Z,9.87
2018-09-15T21:54:33.829Z,9.10
2018-09-15T21:57:01.699Z,11.83
2018-09-15T21:59:29.562Z,9.80
2018-09-15T22:01:57.389Z,11.43
2018-09-15T22:04:25.200Z,13.70
2018-09-15T22:06:53.645Z,10.60
2018-09-15T22:09:21.851Z,11.17
2018-09-15T22:11:50.011Z,10.87
2018-09-15T22:14:17.854Z,10.60
2018-09-15T22:16:45.712Z,10.83
2018-09-15T22:19:14.687Z,11.00
2018-09-15T22:21:43.416Z,10.70
2018-09-15T22:24:11.325Z,10.20
2018-09-15T22:26:40.145Z,11.60
2018-09-15T22:29:07.997Z,12.30
2018-09-15T22:31:35.863Z,11.13
2018-09-15T22:34:03.849Z,12.27
2018-09-15T22:36:31.742Z,12.00
2018-09-15T22:38:59.566Z,11.53
2018-09-15T22:41:28.187Z,9.40
2018-09-15T22:43:56.045Z,10.87
2018-09-15T22:46:23.867Z,10.20
2018-09-15T22:48:51.671Z,7.83
2018-09-15T22:51:19.530Z,8.57
2018-09-15T22:53:47.336Z,7.20
2018-09-15T22:56:15.209Z,6.23
2018-09-15T22:58:43.045Z,8.73
2018-09-15T23:01:10.871Z,8.83
2018-09-15T23:03:38.713Z,9.00
2018-09-15T23:06:07.432Z,8.90
2018-09-15T23:08:35.301Z,10.27
2018-09-15T23:11:03.160Z,12.70
2018-09-15T23:13:30.996Z,10.37
2018-09-15T23:15:58.864Z,12.70
2018-09-15T23:18:26.677Z,11.13
2018-09-15T23:20:55.032Z,10.87
2018-09-15T23:23:23.585Z,11.27
2018-09-15T23:25:51.401Z,12.97
2018-09-15T23:28:19.220Z,12.70
2018-09-15T23:30:47.595Z,13.43
2018-09-15T23:33:16.091Z,11.83
2018-09-15T23:35:43.916Z,11.07
2018-09-15T23:38:11.751Z,12.43
2018-09-15T23:40:39.590Z,12.37
2018-09-15T23:43:07.461Z,11.20
2018-09-15T23:45:35.338Z,10.50
2018-09-15T23:48:03.188Z,11.37
2018-09-15T23:50:31.009Z,13.30
2018-09-15T23:52:58.806Z,10.83
2018-09-15T23:55:26.595Z,10.40
2018-09-15T23:57:54.429Z,8.57
